createdAt,value
2018-12-07T00:00:40.404Z,100505.61
2018-12-07T00:03:19.503Z,100502.78
2018-12-07T00:05:58.167Z,100506.84
2018-12-07T00:08:37.283Z,100507.11
2018-12-07T00:11:16.904Z,100496.91
2018-12-07T00:13:58.606Z,100497.55
2018-12-07T00:16:37.812Z,100501.65
2018-12-07T00:19:16.518Z,100492.91
2018-12-07T00:21:57.922Z,100492.91
2018-12-07T00:24:36.438Z,100505.58
2018-12-07T00:27:16.100Z,100499.23
2018-12-07T00:29:55.887Z,100513.19
2018-12-07T00:32:34.531Z,100507.77
2018-12-07T00:35:13.294Z,100511.45
2018-12-07T00:37:51.921Z,100517.50
2018-12-07T00:40:30.595Z,100506.52
2018-12-07T00:43:09.175Z,100513.41
2018-12-07T00:45:48.127Z,100513.19
2018-12-07T00:48:27.480Z,100524.16
2018-12-07T00:51:06.566Z,100525.80
2018-12-07T00:53:45.546Z,100522.03
2018-12-07T00:56:26.009Z,100510.63
2018-12-07T00:59:04.689Z,100517.31
2018-12-07T01:01:44.589Z,100511.06
2018-12-07T01:04:24.929Z,100516.62
2018-12-07T01:07:04.081Z,100511.66
2018-12-07T01:09:42.665Z,100509.42
2018-12-07T01:12:21.304Z,100510.59
2018-12-07T01:15:00.213Z,100513.98
2018-12-07T01:17:39.110Z,100508.30
2018-12-07T01:20:17.877Z,100517.42
2018-12-07T01:22:56.853Z,100505.91
2018-12-07T01:25:35.577Z,100508.00
2018-12-07T01:28:14.444Z,100499.84
2018-12-07T01:30:55.704Z,100501.75
2018-12-07T01:33:34.332Z,100495.70
2018-12-07T01:36:14.120Z,100497.09
2018-12-07T01:38:52.828Z,100502.43
2018-12-07T01:41:31.793Z,100489.92
2018-12-07T01:44:10.505Z,100503.80
2018-12-07T01:46:49.527Z,100508.09
2018-12-07T01:49:28.194Z,100505.48
2018-12-07T01:52:06.776Z,100499.71
2018-12-07T01:54:45.561Z,100490.47
2018-12-07T01:57:24.170Z,100494.97
2018-12-07T02:00:05.131Z,100492.05
2018-12-07T02:02:44.699Z,100503.47
2018-12-07T02:05:25.501Z,100502.08
2018-12-07T02:08:04.144Z,100501.23
2018-12-07T02:10:42.934Z,100496.62
2018-12-07T02:13:21.595Z,100495.84
2018-12-07T02:16:00.113Z,100486.66
2018-12-07T02:18:38.982Z,100475.08
2018-12-07T02:21:17.670Z,100473.23
2018-12-07T02:23:56.856Z,100475.98
2018-12-07T02:26:35.499Z,100462.16
2018-12-07T02:29:14.904Z,100475.83
2018-12-07T02:31:53.752Z,100473.53
2018-12-07T02:34:33.528Z,100458.58
2018-12-07T02:37:12.508Z,100455.39
2018-12-07T02:39:51.604Z,100468.22
2018-12-07T02:42:30.151Z,100463.02
2018-12-07T02:45:10.872Z,100450.80
2018-12-07T02:47:49.832Z,100449.78
2018-12-07T02:50:29.115Z,100447.53
2018-12-07T02:53:08.258Z,100461.19
2018-12-07T02:55:47.267Z,100442.18
2018-12-07T02:58:27.273Z,100430.54
2018-12-07T03:01:09.629Z,100439.34
2018-12-07T03:03:49.013Z,100431.95
2018-12-07T03:06:28.644Z,100430.58
2018-12-07T03:09:10.523Z,100431.47
2018-12-07T03:11:50.402Z,100426.27
2018-12-07T03:14:30.790Z,100432.84
2018-12-07T03:17:11.811Z,100443.98
2018-12-07T03:19:51.093Z,100422.23
2018-12-07T03:22:30.594Z,100425.53
2018-12-07T03:25:09.893Z,100430.05
2018-12-07T03:27:49.278Z,100413.69
2018-12-07T03:30:28.355Z,100433.45
2018-12-07T03:33:07.263Z,100421.62
2018-12-07T03:35:46.254Z,100414.33
2018-12-07T03:38:26.085Z,100421.02
2018-12-07T03:41:05.075Z,100417.41
2018-12-07T03:43:44.670Z,100414.21
2018-12-07T03:46:24.001Z,100408.05
2018-12-07T03:49:03.685Z,100412.24
2018-12-07T03:51:42.877Z,100414.38
2018-12-07T03:54:27.060Z,100411.17
2018-12-07T03:57:07.003Z,100412.06
2018-12-07T03:59:46.064Z,100403.30
2018-12-07T04:02:27.558Z,100409.43
2018-12-07T04:05:07.392Z,100400.41
2018-12-07T04:07:49.919Z,100410.90
2018-12-07T04:14:15.568Z,100386.00
2018-12-07T04:16:54.784Z,100408.40
2018-12-07T04:19:33.797Z,100411.94
2018-12-07T04:22:12.750Z,100420.04
2018-12-07T04:24:53.340Z,100414.88
2018-12-07T04:27:33.617Z,100395.44
2018-12-07T04:30:23.607Z,100402.24
2018-12-07T04:33:04.917Z,100401.85
2018-12-07T04:35:45.034Z,100396.45
2018-12-07T04:38:25.517Z,100391.53
2018-12-07T04:41:05.856Z,100394.14
2018-12-07T04:43:45.448Z,100386.47
2018-12-07T04:46:24.511Z,100394.13
2018-12-07T04:49:05.847Z,100389.83
2018-12-07T04:51:45.718Z,100382.29
2018-12-07T04:54:24.855Z,100380.94
2018-12-07T04:57:04.123Z,100369.11
2018-12-07T04:59:43.683Z,100383.61
2018-12-07T05:02:23.452Z,100379.33
2018-12-07T05:05:03.750Z,100374.31
2018-12-07T05:07:45.870Z,100370.51
2018-12-07T05:10:26.843Z,100360.11
2018-12-07T05:13:07.871Z,100358.22
2018-12-07T05:15:50.677Z,100365.08
2018-12-07T05:18:31.740Z,100362.29
2018-12-07T05:21:12.780Z,100373.14
2018-12-07T05:23:52.663Z,100356.70
2018-12-07T05:26:32.413Z,100369.17
2018-12-07T05:29:12.343Z,100347.98
2018-12-07T05:31:53.437Z,100362.81
2018-12-07T05:34:35.032Z,100358.03
2018-12-07T05:37:17.682Z,100362.06
2018-12-07T05:39:57.867Z,100356.66
2018-12-07T05:48:03.908Z,100352.52
2018-12-07T05:50:43.999Z,100356.26
2018-12-07T05:53:25.288Z,100371.67
2018-12-07T05:56:04.818Z,100362.67
2018-12-07T05:58:44.307Z,100365.58
2018-12-07T06:01:23.286Z,100364.48
2018-12-07T06:04:03.149Z,100356.83
2018-12-07T06:06:43.284Z,100364.78
2018-12-07T06:09:22.666Z,100358.28
2018-12-07T06:12:08.248Z,100368.22
2018-12-07T06:14:47.410Z,100364.00
2018-12-07T06:17:26.571Z,100360.23
2018-12-07T06:20:05.422Z,100367.39
2018-12-07T06:22:44.661Z,100363.22
2018-12-07T06:25:24.189Z,100354.61
2018-12-07T06:28:04.891Z,100356.94
2018-12-07T06:30:45.293Z,100356.70
2018-12-07T06:33:25.370Z,100362.63
2018-12-07T06:36:04.923Z,100361.63
2018-12-07T06:38:45.659Z,100362.12
2018-12-07T06:41:24.576Z,100354.88
2018-12-07T06:44:03.920Z,100349.47
2018-12-07T06:46:43.514Z,100352.23
2018-12-07T06:49:23.248Z,100348.09
2018-12-07T06:52:02.344Z,100346.08
2018-12-07T06:54:42.438Z,100352.07
2018-12-07T06:57:22.854Z,100350.83
2018-12-07T07:00:03.687Z,100359.63
2018-12-07T07:02:44.429Z,100364.98
2018-12-07T07:05:25.817Z,100357.81
2018-12-07T07:08:06.260Z,100363.82
2018-12-07T07:10:48.100Z,100360.94
2018-12-07T07:13:29.619Z,100355.02
2018-12-07T07:16:09.516Z,100361.46
2018-12-07T07:18:49.275Z,100364.86
2018-12-07T07:21:35.275Z,100369.15
2018-12-07T07:24:15.564Z,100352.56
2018-12-07T07:26:54.917Z,100351.20
2018-12-07T07:29:37.461Z,100352.56
2018-12-07T07:32:19.072Z,100350.11
2018-12-07T07:35:01.072Z,100346.16
2018-12-07T07:37:42.459Z,100358.36
2018-12-07T07:40:26.234Z,100358.03
2018-12-07T07:43:09.652Z,100366.59
2018-12-07T07:45:52.492Z,100359.45
2018-12-07T07:48:39.340Z,100370.86
2018-12-07T07:51:24.051Z,100362.36
2018-12-07T07:54:05.341Z,100363.63
2018-12-07T07:56:46.914Z,100366.08
2018-12-07T07:59:31.002Z,100357.66
2018-12-07T08:02:13.098Z,100355.31
2018-12-07T08:04:54.077Z,100364.14
2018-12-07T08:07:35.196Z,100365.41
2018-12-07T08:10:16.737Z,100369.41
2018-12-07T08:12:58.852Z,100368.47
2018-12-07T08:15:43.016Z,100361.75
2018-12-07T08:18:26.909Z,100367.36
2018-12-07T08:21:12.453Z,100366.93
2018-12-07T08:23:55.218Z,100374.09
2018-12-07T08:26:40.317Z,100365.63
2018-12-07T08:29:23.935Z,100372.72
2018-12-07T08:32:07.360Z,100370.08
2018-12-07T08:34:52.284Z,100371.84
2018-12-07T08:37:35.742Z,100379.13
2018-12-07T08:40:17.749Z,100368.60
2018-12-07T08:42:57.865Z,100374.00
2018-12-07T08:45:37.010Z,100383.20
2018-12-07T08:48:16.355Z,100376.39
2018-12-07T08:50:55.571Z,100379.70
2018-12-07T08:53:34.630Z,100375.64
2018-12-07T08:56:13.646Z,100374.79
2018-12-07T08:58:53.169Z,100376.08
2018-12-07T09:01:32.331Z,100382.61
2018-12-07T09:04:11.282Z,100376.83
2018-12-07T09:06:50.271Z,100377.92
2018-12-07T09:09:30.657Z,100368.45
2018-12-07T09:12:10.179Z,100367.01
2018-12-07T09:14:49.153Z,100364.77
2018-12-07T09:17:32.935Z,100370.07
2018-12-07T09:20:13.112Z,100364.58
2018-12-07T09:22:53.722Z,100358.14
2018-12-07T09:25:33.589Z,100367.95
2018-12-07T09:28:13.740Z,100365.60
2018-12-07T09:30:55.191Z,100380.57
2018-12-07T09:33:36.999Z,100380.75
2018-12-07T09:36:20.380Z,100378.17
2018-12-07T09:39:02.267Z,100380.86
2018-12-07T09:41:43.230Z,100385.26
2018-12-07T09:44:25.006Z,100385.82
2018-12-07T09:47:10.950Z,100391.60
2018-12-07T09:49:53.012Z,100384.41
2018-12-07T09:52:34.400Z,100392.95
2018-12-07T09:55:18.100Z,100373.68
2018-12-07T09:58:02.067Z,100380.16
2018-12-07T10:00:48.039Z,100381.89
2018-12-07T10:03:28.546Z,100389.48
2018-12-07T10:06:14.122Z,100381.34
2018-12-07T10:08:55.170Z,100388.53
2018-12-07T10:11:36.162Z,100383.95
2018-12-07T10:14:16.623Z,100387.72
2018-12-07T10:16:57.303Z,100382.53
2018-12-07T10:19:38.285Z,100387.31
2018-12-07T10:22:18.186Z,100380.92
2018-12-07T10:24:58.621Z,100378.97
2018-12-07T10:27:39.070Z,100378.34
2018-12-07T10:30:20.201Z,100382.48
2018-12-07T10:32:59.881Z,100381.27
2018-12-07T10:35:40.881Z,100370.77
2018-12-07T10:38:23.435Z,100381.24
2018-12-07T10:41:05.670Z,100378.63
2018-12-07T10:43:45.935Z,100381.93
2018-12-07T10:46:28.702Z,100386.57
2018-12-07T10:49:12.025Z,100384.12
2018-12-07T10:51:55.270Z,100376.17
2018-12-07T10:54:37.212Z,100374.23
2018-12-07T10:57:20.105Z,100382.36
2018-12-07T11:00:02.121Z,100374.92
2018-12-07T11:02:48.485Z,100370.83
2018-12-07T11:06:34.909Z,100376.91
2018-12-07T11:09:21.200Z,100368.79
2018-12-07T11:12:05.999Z,100361.77
2018-12-07T11:14:51.643Z,100366.36
2018-12-07T11:17:38.858Z,100366.36
2018-12-07T11:21:22.304Z,100367.86
2018-12-07T11:24:07.240Z,100364.89
2018-12-07T11:26:55.034Z,100367.05
2018-12-07T11:29:39.732Z,100372.17
2018-12-07T11:32:24.198Z,100371.55
2018-12-07T11:35:09.764Z,100372.41
2018-12-07T11:37:51.249Z,100367.26
2018-12-07T11:40:32.763Z,100363.67
2018-12-07T11:43:15.008Z,100349.45
2018-12-07T11:45:58.334Z,100362.54
2018-12-07T11:48:44.210Z,100361.89
2018-12-07T11:51:30.680Z,100359.55
2018-12-07T11:54:17.673Z,100366.36
2018-12-07T11:57:03.134Z,100365.73
2018-12-07T11:59:46.713Z,100367.03
2018-12-07T12:02:34.879Z,100367.88
2018-12-07T12:05:17.122Z,100369.23
2018-12-07T12:07:58.634Z,100375.48
2018-12-07T12:10:42.522Z,100370.20
2018-12-07T12:13:24.698Z,100365.41
2018-12-07T12:16:08.658Z,100361.38
2018-12-07T12:18:50.678Z,100367.98
2018-12-07T12:21:33.252Z,100379.08
2018-12-07T12:24:14.907Z,100378.02
2018-12-07T12:26:58.426Z,100382.98
2018-12-07T12:29:40.839Z,100371.94
2018-12-07T12:32:23.078Z,100372.72
2018-12-07T12:35:05.639Z,100374.08
2018-12-07T12:37:49.567Z,100374.09
2018-12-07T12:40:36.218Z,100372.79
2018-12-07T12:43:22.299Z,100366.70
2018-12-07T12:46:05.544Z,100373.33
2018-12-07T12:48:49.296Z,100377.52
2018-12-07T12:51:31.401Z,100373.59
2018-12-07T12:54:13.415Z,100363.69
2018-12-07T12:56:55.282Z,100350.69
2018-12-07T12:59:38.387Z,100353.51
2018-12-07T13:02:21.196Z,100367.98
2018-12-07T13:05:03.336Z,100364.90
2018-12-07T13:07:45.478Z,100354.30
2018-12-07T13:10:29.394Z,100354.09
2018-12-07T13:13:11.149Z,100353.71
2018-12-07T13:15:55.467Z,100351.00
2018-12-07T13:18:39.186Z,100353.16
2018-12-07T13:21:21.325Z,100360.27
2018-12-07T13:24:04.409Z,100355.47
2018-12-07T13:26:47.042Z,100347.96
2018-12-07T13:29:29.082Z,100357.16
2018-12-07T13:32:10.628Z,100352.78
2018-12-07T13:34:52.847Z,100355.44
2018-12-07T13:37:34.543Z,100359.91
2018-12-07T13:40:16.979Z,100348.25
2018-12-07T13:42:58.593Z,100358.54
2018-12-07T13:45:40.685Z,100356.14
2018-12-07T13:48:23.298Z,100356.97
2018-12-07T13:51:04.215Z,100364.70
2018-12-07T13:53:47.247Z,100366.34
2018-12-07T13:56:28.633Z,100357.36
2018-12-07T13:59:11.726Z,100361.98
2018-12-07T14:01:55.221Z,100360.47
2018-12-07T14:04:39.046Z,100352.69
2018-12-07T14:07:20.849Z,100364.75
2018-12-07T14:10:04.024Z,100357.99
2018-12-07T14:12:54.924Z,100368.72
2018-12-07T14:15:40.171Z,100362.08
2018-12-07T14:18:24.093Z,100357.47
2018-12-07T14:21:09.044Z,100359.63
2018-12-07T14:23:53.151Z,100356.63
2018-12-07T14:26:35.040Z,100362.61
2018-12-07T14:29:18.655Z,100359.71
2018-12-07T14:32:00.301Z,100359.55
2018-12-07T14:34:42.980Z,100355.03
2018-12-07T14:37:28.466Z,100355.13
2018-12-07T14:40:13.689Z,100360.08
2018-12-07T14:42:56.946Z,100359.63
2018-12-07T14:45:38.315Z,100357.47
2018-12-07T14:48:19.505Z,100361.11
2018-12-07T14:51:02.435Z,100353.38
2018-12-07T14:53:45.251Z,100355.91
2018-12-07T14:56:26.552Z,100350.55
2018-12-07T14:59:08.506Z,100352.54
2018-12-07T15:01:50.072Z,100344.77
2018-12-07T15:04:34.103Z,100348.59
2018-12-07T15:07:13.830Z,100349.31
2018-12-07T15:09:55.354Z,100338.30
2018-12-07T15:12:35.562Z,100332.34
2018-12-07T15:15:15.649Z,100336.73
2018-12-07T15:17:57.620Z,100338.05
2018-12-07T15:20:38.533Z,100335.30
2018-12-07T15:23:18.844Z,100330.19
2018-12-07T15:26:00.988Z,100329.43
2018-12-07T15:28:45.041Z,100327.64
2018-12-07T15:31:27.145Z,100325.13
2018-12-07T15:34:09.970Z,100320.64
2018-12-07T15:36:54.945Z,100324.74
2018-12-07T15:39:36.013Z,100333.44
2018-12-07T15:42:16.071Z,100320.72
2018-12-07T15:44:56.047Z,100316.89
2018-12-07T15:47:36.065Z,100320.34
2018-12-07T15:50:16.693Z,100310.00
2018-12-07T15:52:56.806Z,100314.30
2018-12-07T15:55:36.537Z,100306.88
2018-12-07T15:58:15.307Z,100321.48
2018-12-07T16:01:00.577Z,100316.42
2018-12-07T16:03:50.806Z,100312.95
2018-12-07T16:06:30.227Z,100316.33
2018-12-07T16:09:11.949Z,100317.46
2018-12-07T16:11:51.349Z,100311.18
2018-12-07T16:14:30.670Z,100321.19
2018-12-07T16:17:10.867Z,100326.72
2018-12-07T16:19:51.475Z,100323.63
2018-12-07T16:22:32.226Z,100327.85
2018-12-07T16:25:12.798Z,100326.43
2018-12-07T16:27:54.230Z,100328.48
2018-12-07T16:30:34.333Z,100327.94
2018-12-07T16:33:14.582Z,100326.17
2018-12-07T16:35:55.013Z,100328.09
2018-12-07T16:38:35.652Z,100331.75
2018-12-07T16:41:15.967Z,100323.62
2018-12-07T16:43:55.702Z,100324.09
2018-12-07T16:46:34.649Z,100321.38
2018-12-07T16:49:13.859Z,100324.63
2018-12-07T16:51:53.177Z,100320.92
2018-12-07T16:54:32.556Z,100327.09
2018-12-07T16:57:12.531Z,100329.42
2018-12-07T16:59:51.489Z,100337.75
2018-12-07T17:02:32.208Z,100335.61
2018-12-07T17:05:13.130Z,100338.45
2018-12-07T17:07:54.616Z,100330.09
2018-12-07T17:10:33.797Z,100334.77
2018-12-07T17:13:12.802Z,100327.46
2018-12-07T17:15:54.085Z,100330.47
2018-12-07T17:18:33.208Z,100336.04
2018-12-07T17:21:13.756Z,100331.95
2018-12-07T17:23:53.161Z,100344.95
2018-12-07T17:26:33.590Z,100337.06
2018-12-07T17:29:12.834Z,100329.61
2018-12-07T17:31:53.681Z,100338.13
2018-12-07T17:34:33.184Z,100329.80
2018-12-07T17:37:12.535Z,100336.07
2018-12-07T17:39:51.523Z,100332.45
2018-12-07T17:42:31.790Z,100339.26
2018-12-07T17:45:11.273Z,100339.86
2018-12-07T17:47:50.561Z,100337.74
2018-12-07T17:50:30.670Z,100339.88
2018-12-07T17:53:09.774Z,100332.79
2018-12-07T17:55:48.736Z,100327.66
2018-12-07T17:58:27.737Z,100335.59
2018-12-07T18:01:09.995Z,100332.84
2018-12-07T18:03:48.941Z,100337.66
2018-12-07T18:06:28.114Z,100327.64
2018-12-07T18:09:13.317Z,100329.44
2018-12-07T18:11:52.490Z,100325.72
2018-12-07T18:14:31.217Z,100323.50
2018-12-07T18:17:10.039Z,100319.80
2018-12-07T18:19:48.700Z,100314.89
2018-12-07T18:22:27.575Z,100304.70
2018-12-07T18:25:06.973Z,100312.16
2018-12-07T18:27:46.293Z,100319.03
2018-12-07T18:30:25.960Z,100315.33
2018-12-07T18:33:04.848Z,100310.16
2018-12-07T18:35:44.645Z,100308.15
2018-12-07T18:38:23.367Z,100302.82
2018-12-07T18:41:05.828Z,100293.08
2018-12-07T18:43:45.004Z,100297.79
2018-12-07T18:46:25.917Z,100307.24
2018-12-07T18:49:05.293Z,100301.97
2018-12-07T18:51:44.227Z,100295.64
2018-12-07T18:54:22.847Z,100297.36
2018-12-07T18:57:01.921Z,100298.01
2018-12-07T18:59:41.417Z,100294.93
2018-12-07T19:02:20.039Z,100295.94
2018-12-07T19:04:59.003Z,100296.42
2018-12-07T19:07:37.978Z,100288.34
2018-12-07T19:10:23.992Z,100299.77
2018-12-07T19:13:02.721Z,100299.88
2018-12-07T19:15:42.681Z,100298.64
2018-12-07T19:18:21.476Z,100300.98
2018-12-07T19:21:00.599Z,100301.32
2018-12-07T19:23:39.215Z,100296.54
2018-12-07T19:26:18.319Z,100294.98
2018-12-07T19:28:57.464Z,100290.66
2018-12-07T19:31:37.855Z,100283.11
2018-12-07T19:34:16.566Z,100281.49
2018-12-07T19:36:55.797Z,100274.20
2018-12-07T19:39:34.531Z,100268.47
2018-12-07T19:42:14.283Z,100272.17
2018-12-07T19:44:52.974Z,100270.32
2018-12-07T19:47:31.706Z,100266.09
2018-12-07T19:50:10.640Z,100261.50
2018-12-07T19:52:49.723Z,100255.89
2018-12-07T19:55:28.788Z,100249.30
2018-12-07T19:58:07.684Z,100259.93
2018-12-07T20:00:47.511Z,100261.37
2018-12-07T20:03:26.080Z,100257.14
2018-12-07T20:06:06.687Z,100255.18
2018-12-07T20:08:46.402Z,100257.05
2018-12-07T20:11:33.224Z,100251.75
2018-12-07T20:14:12.179Z,100245.70
2018-12-07T20:16:51.409Z,100237.73
2018-12-07T20:19:30.030Z,100235.98
2018-12-07T20:22:08.702Z,100236.29
2018-12-07T20:24:47.185Z,100239.06
2018-12-07T20:27:27.123Z,100235.34
2018-12-07T20:30:07.627Z,100238.99
2018-12-07T20:32:46.652Z,100239.92
2018-12-07T20:35:25.422Z,100236.91
2018-12-07T20:38:04.543Z,100235.22
2018-12-07T20:40:45.444Z,100234.11
2018-12-07T20:43:38.119Z,100229.04
2018-12-07T20:46:16.798Z,100227.13
2018-12-07T20:48:56.692Z,100234.69
2018-12-07T20:51:35.413Z,100223.37
2018-12-07T20:54:14.077Z,100218.14
2018-12-07T20:56:52.809Z,100216.35
2018-12-07T20:59:31.570Z,100217.78
2018-12-07T21:02:10.768Z,100211.52
2018-12-07T21:04:50.126Z,100211.00
2018-12-07T21:07:46.401Z,100206.98
2018-12-07T21:10:43.095Z,100208.45
2018-12-07T21:13:49.198Z,100208.12
2018-12-07T21:17:16.212Z,100212.03
2018-12-07T21:20:18.319Z,100207.72
2018-12-07T21:22:57.280Z,100214.60
2018-12-07T21:25:36.357Z,100212.84
2018-12-07T21:28:15.481Z,100209.89
2018-12-07T21:31:04.550Z,100199.78
2018-12-07T21:33:58.200Z,100205.38
2018-12-07T21:36:45.821Z,100200.87
2018-12-07T21:39:55.926Z,100198.55
2018-12-07T21:42:35.102Z,100198.65
2018-12-07T21:45:13.924Z,100195.28
2018-12-07T21:48:32.007Z,100197.72
2018-12-07T21:51:21.426Z,100194.20
2018-12-07T21:54:00.183Z,100191.09
2018-12-07T21:56:39.374Z,100191.67
2018-12-07T21:59:18.323Z,100200.27
2018-12-07T22:01:57.255Z,100202.08
2018-12-07T22:04:36.550Z,100186.55
2018-12-07T22:07:17.459Z,100181.83
2018-12-07T22:09:57.917Z,100191.80
2018-12-07T22:12:37.002Z,100188.23
2018-12-07T22:15:16.154Z,100184.64
2018-12-07T22:17:55.835Z,100185.62
2018-12-07T22:20:34.793Z,100193.39
2018-12-07T22:23:14.888Z,100205.20
2018-12-07T22:25:54.029Z,100204.83
2018-12-07T22:28:33.056Z,100201.09
2018-12-07T22:31:12.213Z,100200.59
2018-12-07T22:33:51.799Z,100210.61
2018-12-07T22:36:31.903Z,100205.02
2018-12-07T22:39:11.897Z,100213.84
2018-12-07T22:41:51.102Z,100212.11
2018-12-07T22:44:30.505Z,100213.19
2018-12-07T22:47:13.608Z,100224.89
2018-12-07T22:49:52.796Z,100223.05
2018-12-07T22:52:31.776Z,100215.64
2018-12-07T22:55:11.720Z,100216.94
2018-12-07T22:57:50.691Z,100226.03
2018-12-07T23:00:30.049Z,100227.42
2018-12-07T23:03:09.992Z,100232.48
2018-12-07T23:05:48.952Z,100230.92
2018-12-07T23:08:28.086Z,100227.39
2018-12-07T23:11:07.654Z,100217.92
2018-12-07T23:13:46.586Z,100222.12
2018-12-07T23:16:29.889Z,100231.31
2018-12-07T23:19:09.143Z,100233.00
2018-12-07T23:21:49.596Z,100237.47
2018-12-07T23:24:29.147Z,100245.41
2018-12-07T23:27:08.687Z,100241.89
2018-12-07T23:29:49.328Z,100241.69
2018-12-07T23:32:30.619Z,100244.50
2018-12-07T23:35:12.917Z,100247.22
2018-12-07T23:37:56.406Z,100249.23
2018-12-07T23:40:37.333Z,100253.98
2018-12-07T23:43:20.882Z,100267.61
2018-12-07T23:46:01.727Z,100271.25
2018-12-07T23:48:41.761Z,100274.41
2018-12-07T23:51:22.840Z,100271.30
2018-12-07T23:54:01.788Z,100279.70
2018-12-07T23:56:41.148Z,100273.63
2018-12-07T23:59:22.150Z,100282.19
